Time;durP1;ratioP1;P1;durP2;ratioP2;P2;SDS_P1;SDS_P2;PMS_P1;PMS_P2;Temp;Humidity;BMP_temperature;BMP_pressure;BME280_temperature;BME280_humidity;BME280_pressure;Samples;Min_cycle;Max_cycle;Signal;HPM_P1;HPM_P2
2022/08/27 00:02:04;;;;;;;12.65;8.15;;;21.70;74.20;;;;;;5035183;28;20068;-10
2022/08/27 00:04:31;;;;;;;12.43;8.05;;;21.70;74.10;;;;;;5036169;28;20029;-9
2022/08/27 00:06:57;;;;;;;15.40;9.57;;;21.70;73.90;;;;;;5035929;28;20029;-10
2022/08/27 00:09:23;;;;;;;12.52;9.35;;;21.70;75.20;;;;;;5036311;28;20034;-9
2022/08/27 00:11:50;;;;;;;16.17;9.27;;;21.70;75.10;;;;;;5036410;28;20036;-10
2022/08/27 00:14:16;;;;;;;15.20;8.48;;;21.70;75.20;;;;;;5035972;28;20040;-11
2022/08/27 00:16:42;;;;;;;12.15;8.40;;;21.70;74.80;;;;;;5035923;28;20033;-10
2022/08/27 00:19:09;;;;;;;14.82;8.27;;;21.70;74.90;;;;;;5035778;28;20023;-11
2022/08/27 00:21:35;;;;;;;12.43;8.73;;;21.70;75.00;;;;;;5035827;28;20393;-10
2022/08/27 00:24:01;;;;;;;10.65;7.55;;;21.70;75.10;;;;;;5036065;28;20478;-10
2022/08/27 00:26:28;;;;;;;10.88;8.00;;;21.60;74.90;;;;;;5035926;28;20026;-11
2022/08/27 00:28:54;;;;;;;12.27;8.35;;;21.60;75.00;;;;;;5035485;28;20049;-11
2022/08/27 00:31:19;;;;;;;12.75;7.93;;;21.60;75.00;;;;;;5035567;28;20131;-10
2022/08/27 00:33:45;;;;;;;13.50;9.10;;;21.60;75.00;;;;;;5035671;28;20021;-10
2022/08/27 00:36:12;;;;;;;9.93;7.35;;;21.60;75.40;;;;;;5035742;28;20021;-11
2022/08/27 00:38:40;;;;;;;11.77;7.82;;;21.60;75.30;;;;;;5035503;28;20057;-10
2022/08/27 00:41:09;;;;;;;14.35;8.50;;;21.60;75.10;;;;;;5035889;28;20026;-11
2022/08/27 00:43:47;;;;;;;17.88;9.88;;;21.60;75.20;;;;;;5035746;28;20045;-11
2022/08/27 00:46:25;;;;;;;13.43;8.23;;;21.60;75.20;;;;;;5036056;28;20025;-11
2022/08/27 00:48:55;;;;;;;11.98;8.23;;;21.60;75.20;;;;;;5035769;28;20033;-10
2022/08/27 00:51:23;;;;;;;11.85;8.07;;;21.50;75.00;;;;;;5035575;28;20038;-11
2022/08/27 00:53:52;;;;;;;12.85;8.68;;;21.60;74.90;;;;;;5035586;28;20024;-10
2022/08/27 00:56:22;;;;;;;12.88;7.90;;;21.60;74.80;;;;;;5035558;28;20026;-11
2022/08/27 00:58:51;;;;;;;12.73;8.75;;;21.60;74.60;;;;;;5035271;28;20099;-10
2022/08/27 01:01:21;;;;;;;13.07;8.52;;;21.60;74.40;;;;;;5036299;28;20108;-10
2022/08/27 01:03:52;;;;;;;13.30;8.27;;;21.60;74.60;;;;;;5035127;28;20029;-11
2022/08/27 01:06:20;;;;;;;12.93;8.65;;;21.60;74.60;;;;;;5033870;28;20068;-10
2022/08/27 01:08:52;;;;;;;12.10;8.18;;;21.60;74.80;;;;;;5034944;28;20070;-10
2022/08/27 01:11:20;;;;;;;14.45;8.30;;;21.60;74.80;;;;;;5035212;28;20033;-10
2022/08/27 01:13:46;;;;;;;14.63;9.13;;;21.60;74.80;;;;;;5034902;28;20117;-10
2022/08/27 01:16:19;;;;;;;13.73;8.30;;;21.50;75.10;;;;;;5035142;28;20017;-10
2022/08/27 01:18:46;;;;;;;11.95;8.20;;;21.50;75.30;;;;;;5035225;28;20029;-10
2022/08/27 01:21:33;;;;;;;15.23;8.70;;;21.50;75.10;;;;;;5034751;28;20026;-9
2022/08/27 01:24:37;;;;;;;12.85;8.43;;;21.40;75.10;;;;;;5034986;28;20021;-10
2022/08/27 01:27:06;;;;;;;12.27;8.07;;;21.40;75.10;;;;;;5035055;28;20029;-10
2022/08/27 01:29:32;;;;;;;13.95;8.15;;;21.40;74.90;;;;;;5034428;28;20127;-10
2022/08/27 01:32:06;;;;;;;13.43;8.43;;;21.50;75.00;;;;;;5034491;28;20075;-10
2022/08/27 01:34:32;;;;;;;16.33;8.40;;;21.40;75.30;;;;;;5034581;28;20113;-10
2022/08/27 01:36:58;;;;;;;14.88;8.77;;;21.40;75.40;;;;;;5034280;28;20492;-10
2022/08/27 01:39:24;;;;;;;13.90;8.90;;;21.40;75.30;;;;;;5034624;28;20033;-10
2022/08/27 01:41:51;;;;;;;16.05;10.65;;;21.40;75.20;;;;;;5034336;28;20029;-10
2022/08/27 01:44:18;;;;;;;13.75;8.63;;;21.40;75.30;;;;;;5034579;28;20025;-10
2022/08/27 01:46:44;;;;;;;14.05;8.75;;;21.40;75.20;;;;;;5034579;28;20103;-10
2022/08/27 01:49:10;;;;;;;14.23;8.77;;;21.40;75.30;;;;;;5034099;28;20405;-10
2022/08/27 01:51:36;;;;;;;13.00;8.57;;;21.40;75.20;;;;;;5034765;28;20025;-11
2022/08/27 01:54:02;;;;;;;14.80;8.65;;;21.40;75.20;;;;;;5034409;28;20029;-10
2022/08/27 01:56:28;;;;;;;13.00;8.38;;;21.40;75.10;;;;;;5034061;28;20029;-10
2022/08/27 01:58:54;;;;;;;13.65;8.65;;;21.40;75.10;;;;;;5034107;28;20033;-10
2022/08/27 02:01:20;;;;;;;13.57;8.65;;;21.40;75.00;;;;;;5032730;28;20425;-9
2022/08/27 02:03:47;;;;;;;13.27;7.72;;;21.40;75.10;;;;;;5034541;28;20496;-10
2022/08/27 02:06:14;;;;;;;11.40;7.72;;;21.50;75.00;;;;;;5033929;28;20104;-11
2022/08/27 02:08:40;;;;;;;13.05;9.00;;;21.50;75.10;;;;;;5034091;28;20068;-10
2022/08/27 02:11:07;;;;;;;12.38;7.47;;;21.50;75.20;;;;;;5033568;28;20029;-11
2022/08/27 02:13:34;;;;;;;12.20;8.25;;;21.50;75.10;;;;;;5034236;28;20029;-10
2022/08/27 02:16:00;;;;;;;12.05;8.05;;;21.50;75.00;;;;;;5033740;28;20021;-10
2022/08/27 02:18:26;;;;;;;13.25;8.18;;;21.40;75.00;;;;;;5033989;28;20430;-10
2022/08/27 02:20:52;;;;;;;11.13;7.88;;;21.50;75.00;;;;;;5033483;28;20171;-10
2022/08/27 02:23:18;;;;;;;16.77;8.73;;;21.40;75.00;;;;;;5033877;28;20072;-10
2022/08/27 02:25:47;;;;;;;16.25;9.48;;;21.50;75.00;;;;;;5033504;28;20056;-11
2022/08/27 02:28:14;;;;;;;16.05;10.38;;;21.50;75.00;;;;;;5033616;28;20044;-10
2022/08/27 02:30:40;;;;;;;15.55;10.88;;;21.50;75.20;;;;;;5033810;28;20041;-10
2022/08/27 02:33:06;;;;;;;13.93;8.88;;;21.50;75.10;;;;;;5033246;28;20040;-10
2022/08/27 02:35:37;;;;;;;12.13;8.13;;;21.50;75.00;;;;;;5033755;28;20025;-11
2022/08/27 02:38:04;;;;;;;13.48;8.77;;;21.60;75.00;;;;;;5033450;28;20029;-11
2022/08/27 02:40:30;;;;;;;13.18;7.95;;;21.60;74.90;;;;;;5033314;28;20512;-10
2022/08/27 02:42:56;;;;;;;11.93;8.35;;;21.60;74.80;;;;;;5033436;28;20021;-11
2022/08/27 02:45:22;;;;;;;11.38;7.97;;;21.60;74.90;;;;;;5032740;28;20120;-11
2022/08/27 02:47:48;;;;;;;12.57;7.43;;;21.60;74.80;;;;;;5033281;28;20458;-11
2022/08/27 02:50:16;;;;;;;12.95;8.25;;;21.60;74.80;;;;;;5033179;28;20393;-10
2022/08/27 02:52:44;;;;;;;13.43;8.73;;;21.60;74.70;;;;;;5033444;28;20108;-11
2022/08/27 02:55:11;;;;;;;13.07;7.55;;;21.60;74.60;;;;;;5033244;28;20033;-10
2022/08/27 02:57:38;;;;;;;10.18;7.32;;;21.70;74.60;;;;;;5033426;28;20448;-10
2022/08/27 03:00:07;;;;;;;12.48;8.35;;;21.70;74.40;;;;;;5033159;28;20029;-10
2022/08/27 03:02:34;;;;;;;13.30;8.90;;;21.70;74.40;;;;;;5033101;28;20029;-9
2022/08/27 03:05:00;;;;;;;15.73;11.35;;;21.80;74.30;;;;;;5032984;28;20385;-11
2022/08/27 03:07:26;;;;;;;11.63;7.68;;;21.80;74.40;;;;;;5031805;28;20025;-11
2022/08/27 03:09:52;;;;;;;11.68;8.07;;;21.90;74.50;;;;;;5033218;28;20382;-11
2022/08/27 03:12:18;;;;;;;11.52;8.57;;;21.90;74.70;;;;;;5033100;28;20104;-10
2022/08/27 03:14:44;;;;;;;14.07;8.90;;;21.90;74.70;;;;;;5032989;28;20114;-11
2022/08/27 03:20:03;;;;;;;14.80;9.00;;;21.90;74.40;;;;;;5033540;28;20107;-11
2022/08/27 03:22:29;;;;;;;12.20;8.60;;;22.00;74.30;;;;;;5032725;28;20129;-10
2022/08/27 03:24:55;;;;;;;11.82;8.00;;;22.00;74.30;;;;;;5032921;28;20176;-10
2022/08/27 03:27:21;;;;;;;13.93;8.52;;;22.00;74.40;;;;;;5032891;28;20029;-10
2022/08/27 03:29:47;;;;;;;12.50;8.10;;;22.00;74.30;;;;;;5032622;28;20050;-10
2022/08/27 03:32:13;;;;;;;13.68;8.65;;;22.00;74.30;;;;;;5032794;28;20026;-11
2022/08/27 03:34:39;;;;;;;13.13;8.35;;;22.00;74.40;;;;;;5032946;28;20026;-10
2022/08/27 03:37:05;;;;;;;10.38;7.30;;;22.00;74.40;;;;;;5032901;28;20044;-10
2022/08/27 03:39:31;;;;;;;12.88;7.68;;;22.00;74.30;;;;;;5032880;28;20549;-10
2022/08/27 03:41:57;;;;;;;12.23;8.45;;;22.10;74.30;;;;;;5033068;28;20034;-10
2022/08/27 03:44:23;;;;;;;13.32;9.10;;;22.00;74.30;;;;;;5033031;28;20025;-10
2022/08/27 03:46:51;;;;;;;13.63;8.73;;;22.10;74.20;;;;;;5032785;28;20367;-10
2022/08/27 03:49:19;;;;;;;13.45;8.77;;;22.10;74.20;;;;;;5033111;28;20565;-10
2022/08/27 03:51:45;;;;;;;14.73;10.07;;;22.10;74.10;;;;;;5033459;28;20073;-10
2022/08/27 03:54:11;;;;;;;14.45;9.05;;;22.20;74.20;;;;;;5032596;28;20025;-11
2022/08/27 03:56:39;;;;;;;12.90;8.25;;;22.10;74.20;;;;;;5033370;28;20042;-10
2022/08/27 03:59:06;;;;;;;14.38;8.82;;;22.10;74.30;;;;;;5036077;28;20033;-11
2022/08/27 04:01:32;;;;;;;14.20;9.18;;;22.10;74.20;;;;;;5036553;28;20042;-11
2022/08/27 04:03:58;;;;;;;12.10;7.97;;;22.20;74.10;;;;;;5036296;28;20053;-10
2022/08/27 04:06:24;;;;;;;11.95;8.95;;;22.20;74.10;;;;;;5035009;28;20036;-11
2022/08/27 04:08:50;;;;;;;13.40;9.60;;;22.20;74.10;;;;;;5036381;28;20132;-12
2022/08/27 04:11:16;;;;;;;12.65;8.75;;;22.20;74.10;;;;;;5036326;28;20550;-10
2022/08/27 04:13:43;;;;;;;14.65;10.13;;;22.20;74.10;;;;;;5036032;28;20393;-11
2022/08/27 04:16:09;;;;;;;11.77;9.20;;;22.20;74.00;;;;;;5036324;28;20037;-10
2022/08/27 04:18:35;;;;;;;13.60;9.18;;;22.20;74.10;;;;;;5035200;28;20125;-10
2022/08/27 04:21:10;;;;;;;11.95;8.98;;;22.20;74.60;;;;;;5036022;28;20040;-10
2022/08/27 04:23:37;;;;;;;12.60;8.93;;;22.20;74.50;;;;;;5035840;28;20079;-9
2022/08/27 04:26:06;;;;;;;13.10;9.35;;;22.20;74.10;;;;;;5035765;28;20468;-10
2022/08/27 04:28:32;;;;;;;10.93;7.72;;;22.20;73.90;;;;;;5035553;28;20054;-10
2022/08/27 04:31:01;;;;;;;14.38;9.02;;;22.20;73.70;;;;;;5035599;28;20022;-10
2022/08/27 04:33:27;;;;;;;12.27;8.00;;;22.20;73.90;;;;;;5035684;28;20040;-10
2022/08/27 04:36:00;;;;;;;10.68;7.93;;;22.20;73.90;;;;;;5035677;28;20021;-10
2022/08/27 04:38:27;;;;;;;9.93;7.30;;;22.30;73.80;;;;;;5035640;28;20548;-11
2022/08/27 04:43:37;;;;;;;11.43;7.18;;;22.30;73.70;;;;;;5035885;28;20411;-10
2022/08/27 04:46:04;;;;;;;13.48;8.43;;;22.30;73.60;;;;;;5035447;28;20469;-10
2022/08/27 04:48:31;;;;;;;11.35;7.90;;;22.40;73.70;;;;;;5035427;28;20044;-10
2022/08/27 04:50:57;;;;;;;10.05;7.80;;;22.40;73.70;;;;;;5035186;28;20068;-10
2022/08/27 04:53:23;;;;;;;10.20;6.97;;;22.40;73.70;;;;;;5035630;28;20030;-11
2022/08/27 04:55:53;;;;;;;12.45;7.55;;;22.40;73.60;;;;;;5035519;28;20032;-11
2022/08/27 04:58:20;;;;;;;9.77;7.35;;;22.40;73.50;;;;;;5035508;28;20420;-11
2022/08/27 05:00:55;;;;;;;13.13;7.80;;;22.40;73.40;;;;;;5035354;28;20056;-10
2022/08/27 05:03:23;;;;;;;11.43;7.68;;;22.40;73.40;;;;;;5035615;28;20080;-9
2022/08/27 05:05:50;;;;;;;12.30;7.97;;;22.50;73.40;;;;;;5035448;28;20017;-10
2022/08/27 05:08:16;;;;;;;11.48;7.88;;;22.50;74.40;;;;;;5034167;28;20026;-10
2022/08/27 05:10:45;;;;;;;14.30;9.52;;;22.50;74.30;;;;;;5034898;28;20460;-11
2022/08/27 05:13:11;;;;;;;11.88;7.88;;;22.50;74.90;;;;;;5035021;28;20041;-10
2022/08/27 05:15:39;;;;;;;11.65;8.27;;;22.50;75.00;;;;;;5035216;28;20102;-11
2022/08/27 05:18:07;;;;;;;11.82;7.38;;;22.50;75.00;;;;;;5033601;28;20033;-10
2022/08/27 05:20:40;;;;;;;12.88;8.10;;;22.60;74.80;;;;;;5034757;28;20563;-10
2022/08/27 05:23:06;;;;;;;14.73;9.57;;;22.60;74.10;;;;;;5034594;28;20477;-10
2022/08/27 05:25:41;;;;;;;12.45;8.70;;;22.70;74.00;;;;;;5034936;28;20055;-10
2022/08/27 05:28:09;;;;;;;12.85;8.40;;;22.80;73.40;;;;;;5034677;28;20022;-10
2022/08/27 05:30:41;;;;;;;14.95;9.20;;;22.90;73.10;;;;;;5035041;28;20033;-11
2022/08/27 05:33:07;;;;;;;12.93;8.35;;;22.90;72.60;;;;;;5034587;28;20124;-10
2022/08/27 05:35:41;;;;;;;12.73;8.18;;;23.00;72.50;;;;;;5034537;28;20450;-9
2022/08/27 05:38:08;;;;;;;13.65;8.55;;;23.10;72.40;;;;;;5034779;28;20053;-10
2022/08/27 05:40:35;;;;;;;11.13;8.02;;;23.10;72.20;;;;;;5034309;28;20413;-9
2022/08/27 05:43:04;;;;;;;26.10;10.73;;;23.20;72.20;;;;;;5034159;28;20381;-10
2022/08/27 05:45:30;;;;;;;18.02;9.35;;;23.30;71.90;;;;;;5034578;28;20029;-10
2022/08/27 05:47:57;;;;;;;16.00;9.35;;;23.30;71.70;;;;;;5034551;28;20033;-11
2022/08/27 05:50:26;;;;;;;18.92;9.65;;;23.30;71.60;;;;;;5034464;28;20481;-9
2022/08/27 05:52:53;;;;;;;15.27;9.65;;;23.40;71.60;;;;;;5033946;28;20033;-9
2022/08/27 05:55:19;;;;;;;13.35;8.55;;;23.40;71.60;;;;;;5034030;28;20076;-10
2022/08/27 05:57:45;;;;;;;16.45;9.15;;;23.30;71.60;;;;;;5034329;28;20029;-10
2022/08/27 06:02:56;;;;;;;14.05;9.05;;;23.30;71.70;;;;;;5034103;28;20056;-9
2022/08/27 06:05:22;;;;;;;13.70;9.25;;;23.30;71.80;;;;;;5034237;28;20075;-10
2022/08/27 06:07:48;;;;;;;17.90;8.63;;;23.30;71.90;;;;;;5033901;28;20033;-10
2022/08/27 06:10:14;;;;;;;16.02;10.05;;;23.30;71.90;;;;;;5032698;28;20116;-11
2022/08/27 06:12:40;;;;;;;19.88;11.90;;;23.20;72.00;;;;;;5033780;28;20116;-10
2022/08/27 06:15:06;;;;;;;16.48;10.00;;;23.20;72.20;;;;;;5033531;28;20029;-10
2022/08/27 06:17:33;;;;;;;14.48;9.77;;;23.20;72.20;;;;;;5033783;28;20473;-10
2022/08/27 06:19:59;;;;;;;15.80;9.23;;;23.20;72.30;;;;;;5033941;28;20025;-10
2022/08/27 06:22:25;;;;;;;14.38;9.07;;;23.20;72.50;;;;;;5034272;28;20025;-10
2022/08/27 06:24:51;;;;;;;13.98;9.68;;;23.20;72.40;;;;;;5033381;28;20037;-10
2022/08/27 06:27:18;;;;;;;16.23;9.57;;;23.30;72.30;;;;;;5033936;28;20037;-11
2022/08/27 06:29:45;;;;;;;13.70;9.65;;;23.40;72.10;;;;;;5033381;28;20132;-10
2022/08/27 06:32:13;;;;;;;15.35;9.75;;;23.50;71.90;;;;;;5033434;28;20477;-10
2022/08/27 06:34:40;;;;;;;15.75;11.18;;;23.70;71.50;;;;;;5033485;28;20036;-10
2022/08/27 06:37:06;;;;;;;19.25;15.32;;;23.90;71.30;;;;;;5033596;28;20033;-10
2022/08/27 06:39:34;;;;;;;15.68;10.40;;;24.10;70.70;;;;;;5033280;28;20120;-10
2022/08/27 06:42:01;;;;;;;16.45;9.90;;;24.30;70.40;;;;;;5033734;28;20017;-10
2022/08/27 06:44:27;;;;;;;12.98;8.80;;;24.50;69.90;;;;;;5033638;28;20025;-10
2022/08/27 06:46:54;;;;;;;12.20;8.35;;;24.70;69.50;;;;;;5033413;28;20029;-10
2022/08/27 06:49:20;;;;;;;11.95;8.60;;;24.90;69.00;;;;;;5033828;28;20485;-11
2022/08/27 06:51:47;;;;;;;15.55;10.63;;;25.10;68.60;;;;;;5033442;28;20103;-11
2022/08/27 06:54:15;;;;;;;16.48;10.30;;;25.20;67.80;;;;;;5033424;28;20046;-10
2022/08/27 06:56:43;;;;;;;17.02;10.68;;;25.40;67.30;;;;;;5033745;28;20056;-11
2022/08/27 06:59:13;;;;;;;19.02;11.50;;;25.60;65.40;;;;;;5032991;28;20036;-10
2022/08/27 07:01:42;;;;;;;13.55;9.45;;;25.60;66.10;;;;;;5033159;28;20033;-10
2022/08/27 07:04:11;;;;;;;14.35;9.38;;;25.80;65.70;;;;;;5033356;28;20540;-10
2022/08/27 07:06:38;;;;;;;13.45;9.65;;;25.90;65.30;;;;;;5033797;28;20080;-10
2022/08/27 07:09:06;;;;;;;12.80;8.27;;;26.00;64.90;;;;;;5033090;28;20038;-10
2022/08/27 07:11:32;;;;;;;11.68;8.65;;;26.10;64.70;;;;;;5033201;28;20053;-10
2022/08/27 07:13:59;;;;;;;11.02;7.82;;;26.20;64.40;;;;;;5033581;28;20466;-10
2022/08/27 07:16:27;;;;;;;11.55;7.60;;;26.40;64.20;;;;;;5033275;28;20060;-10
2022/08/27 07:18:55;;;;;;;11.25;7.63;;;26.60;63.40;;;;;;5031642;28;20029;-10
2022/08/27 07:21:23;;;;;;;11.38;7.90;;;26.80;62.90;;;;;;5032834;28;20067;-10
2022/08/27 07:23:51;;;;;;;10.13;7.53;;;26.90;62.30;;;;;;5031739;28;20464;-11
2022/08/27 07:26:19;;;;;;;14.05;7.50;;;27.00;62.00;;;;;;5033069;28;20477;-10
2022/08/27 07:28:46;;;;;;;11.07;7.60;;;27.10;61.30;;;;;;5032846;28;20052;-10
2022/08/27 07:31:16;;;;;;;10.43;7.53;;;27.40;60.60;;;;;;5031551;28;20037;-11
2022/08/27 07:33:43;;;;;;;11.30;8.23;;;27.50;60.70;;;;;;5036775;28;20025;-10
2022/08/27 07:36:09;;;;;;;10.25;7.47;;;27.70;59.00;;;;;;5037057;28;20034;-9
2022/08/27 07:38:36;;;;;;;11.63;7.63;;;27.90;58.70;;;;;;5036759;28;20087;-11
2022/08/27 07:41:07;;;;;;;8.63;6.57;;;28.00;58.60;;;;;;5036721;28;20025;-10
2022/08/27 07:46:19;;;;;;;10.45;7.57;;;28.30;58.10;;;;;;5037053;28;20032;-10
2022/08/27 07:48:45;;;;;;;10.50;7.15;;;28.40;57.70;;;;;;5036514;28;20116;-11
2022/08/27 07:51:20;;;;;;;11.73;7.70;;;28.40;57.90;;;;;;5036322;28;20155;-10
2022/08/27 07:53:46;;;;;;;11.38;7.35;;;28.70;57.70;;;;;;5036506;28;20025;-10
2022/08/27 07:56:13;;;;;;;13.48;8.60;;;29.00;57.00;;;;;;5036430;28;20107;-10
2022/08/27 07:58:40;;;;;;;9.80;7.18;;;29.20;55.60;;;;;;5036369;28;20025;-10
2022/08/27 08:01:07;;;;;;;9.77;6.85;;;29.50;55.40;;;;;;5036656;28;20025;-9
2022/08/27 08:03:33;;;;;;;9.65;7.63;;;29.80;54.70;;;;;;5036464;28;20462;-10
2022/08/27 08:06:08;;;;;;;10.63;8.20;;;30.20;53.20;;;;;;5036531;28;20060;-11
2022/08/27 08:08:36;;;;;;;11.07;7.90;;;30.50;51.70;;;;;;5036251;28;20482;-11
2022/08/27 08:11:02;;;;;;;10.98;7.60;;;30.80;51.30;;;;;;5035974;28;20021;-10
2022/08/27 08:13:30;;;;;;;11.68;7.53;;;31.10;50.80;;;;;;5036455;28;20029;-10
2022/08/27 08:15:57;;;;;;;9.15;7.30;;;31.40;50.30;;;;;;5036092;28;20041;-11
2022/08/27 08:18:24;;;;;;;11.88;7.57;;;31.60;49.90;;;;;;5036028;28;20079;-11
2022/08/27 08:20:49;;;;;;;12.77;7.72;;;31.90;49.50;;;;;;5035798;28;20032;-10
2022/08/27 08:23:15;;;;;;;12.35;7.90;;;32.10;48.50;;;;;;5036199;28;20034;-11
2022/08/27 08:25:41;;;;;;;13.05;7.90;;;32.40;48.10;;;;;;5036103;28;20103;-11
2022/08/27 08:28:10;;;;;;;10.98;7.68;;;32.60;46.80;;;;;;5035571;28;20025;-10
2022/08/27 08:30:37;;;;;;;9.23;7.05;;;32.60;47.30;;;;;;5036171;28;20052;-11
2022/08/27 08:33:03;;;;;;;11.18;7.38;;;32.50;47.60;;;;;;5035768;28;20087;-11
2022/08/27 08:35:29;;;;;;;12.70;7.50;;;32.30;48.00;;;;;;5036291;28;20406;-10
2022/08/27 08:37:55;;;;;;;12.45;8.20;;;32.20;47.90;;;;;;5034380;28;20116;-10
2022/08/27 08:40:31;;;;;;;10.30;7.40;;;32.00;47.00;;;;;;5035522;28;20025;-10
2022/08/27 08:42:58;;;;;;;11.75;8.20;;;32.20;46.80;;;;;;5034608;28;20413;-10
2022/08/27 08:45:33;;;;;;;11.75;7.72;;;32.20;47.50;;;;;;5035076;28;20029;-11
2022/08/27 08:48:11;;;;;;;10.82;7.55;;;32.30;47.00;;;;;;5035744;28;20112;-11
2022/08/27 08:51:04;;;;;;;11.80;7.05;;;32.40;47.60;;;;;;5035476;28;20017;-10
2022/08/27 08:53:39;;;;;;;;;;;32.40;46.80;;;;;;5036198;28;20036;-10
2022/08/27 08:56:13;;;;;;;10.30;7.10;;;32.10;47.80;;;;;;5035826;28;20288;-11
2022/08/27 08:58:48;;;;;;;10.70;7.03;;;31.70;46.90;;;;;;5035607;28;20076;-10
2022/08/27 09:01:19;;;;;;;11.57;7.28;;;31.40;47.50;;;;;;5035662;28;20058;-11
2022/08/27 09:03:59;;;;;;;10.18;6.75;;;31.30;47.00;;;;;;5035590;28;20033;-11
2022/08/27 09:06:33;;;;;;;10.32;7.28;;;31.20;46.40;;;;;;5035483;28;20080;-10
2022/08/27 09:09:12;;;;;;;10.13;7.43;;;31.00;47.30;;;;;;5034924;28;20386;-11
2022/08/27 09:11:50;;;;;;;10.70;7.15;;;31.00;48.00;;;;;;5035230;28;20029;-11
2022/08/27 09:14:46;;;;;;;14.80;7.22;;;31.20;48.30;;;;;;5035379;28;20109;-10
2022/08/27 09:17:13;;;;;;;12.27;7.50;;;31.60;47.80;;;;;;5035262;28;20109;-11
2022/08/27 09:19:39;;;;;;;11.45;7.90;;;32.00;46.60;;;;;;5035190;28;20083;-10
2022/08/27 09:22:42;;;;;;;9.77;8.05;;;32.10;46.00;;;;;;5033960;28;20033;-11
2022/08/27 09:25:24;;;;;;;13.27;7.88;;;32.10;45.70;;;;;;5034886;28;20037;-10
2022/08/27 09:27:53;;;;;;;12.57;7.82;;;32.00;45.60;;;;;;5034975;28;20104;-11
2022/08/27 09:30:25;;;;;;;13.52;7.60;;;31.50;45.80;;;;;;5035296;28;20120;-10
2022/08/27 09:33:03;;;;;;;15.07;8.73;;;31.40;46.50;;;;;;5035093;28;20057;-9
2022/08/27 09:35:41;;;;;;;14.80;9.10;;;31.60;46.50;;;;;;5035467;28;20033;-10
2022/08/27 09:38:08;;;;;;;11.63;7.80;;;31.90;46.60;;;;;;5035636;28;20171;-10
2022/08/27 09:40:45;;;;;;;13.07;8.05;;;31.90;46.10;;;;;;5034369;28;20033;-11
2022/08/27 09:43:14;;;;;;;10.20;8.00;;;31.70;46.80;;;;;;5034215;28;20025;-11
2022/08/27 09:45:48;;;;;;;12.77;7.88;;;31.60;47.30;;;;;;5034299;28;20035;-10
2022/08/27 09:48:19;;;;;;;12.15;7.65;;;31.50;47.50;;;;;;5035122;28;20032;-10
2022/08/27 09:50:51;;;;;;;16.50;8.15;;;31.30;47.50;;;;;;5034275;28;20037;-10
2022/08/27 09:53:24;;;;;;;;;;;30.90;47.80;;;;;;5034617;28;20557;-11
2022/08/27 09:56:06;;;;;;;13.95;8.05;;;30.70;48.10;;;;;;5034586;28;19940;-10
2022/08/27 09:58:51;;;;;;;11.32;7.35;;;30.60;48.30;;;;;;5034180;28;20033;-11
2022/08/27 10:01:21;;;;;;;12.38;7.30;;;30.70;48.40;;;;;;5034336;28;20033;-11
2022/08/27 10:03:48;;;;;;;13.07;7.72;;;30.70;48.80;;;;;;5034350;28;20018;-10
2022/08/27 10:06:29;;;;;;;9.95;7.25;;;30.90;48.20;;;;;;5034341;28;20083;-11
2022/08/27 10:09:21;;;;;;;10.57;7.10;;;31.00;46.90;;;;;;5033748;28;20029;-11
2022/08/27 10:12:01;;;;;;;9.85;6.68;;;31.10;47.30;;;;;;5033890;28;20143;-11
2022/08/27 10:14:41;;;;;;;9.70;6.78;;;30.90;47.40;;;;;;5034210;28;20026;-11
2022/08/27 10:17:25;;;;;;;11.43;7.20;;;31.20;47.80;;;;;;5033714;28;20064;-11
2022/08/27 10:19:56;;;;;;;13.48;6.90;;;31.60;46.70;;;;;;5034348;28;20100;-10
2022/08/27 10:22:40;;;;;;;12.85;7.30;;;31.80;46.60;;;;;;5034021;28;20033;-11
2022/08/27 10:25:28;;;;;;;9.40;6.95;;;32.10;46.20;;;;;;5033484;28;20022;-11
2022/08/27 10:28:12;;;;;;;10.18;6.78;;;32.40;45.40;;;;;;5033784;28;20033;-11
2022/08/27 10:31:01;;;;;;;10.55;6.90;;;32.70;44.20;;;;;;5033568;28;20068;-11
2022/08/27 10:33:42;;;;;;;9.30;6.70;;;32.90;44.50;;;;;;5033921;28;20585;-10
2022/08/27 10:36:23;;;;;;;10.00;6.80;;;33.50;44.10;;;;;;5033853;28;20115;-11
2022/08/27 10:39:08;;;;;;;8.63;6.35;;;33.90;42.60;;;;;;5033280;28;20359;-10
2022/08/27 10:42:07;;;;;;;12.00;7.32;;;34.20;42.00;;;;;;5033612;28;20026;-10
2022/08/27 10:45:03;;;;;;;9.52;6.47;;;34.40;41.50;;;;;;5033095;28;20065;-10
2022/08/27 10:48:12;;;;;;;11.02;6.50;;;34.50;40.40;;;;;;5032962;28;20029;-11
2022/08/27 10:50:53;;;;;;;9.48;6.15;;;34.80;39.30;;;;;;5033618;28;20025;-11
2022/08/27 10:53:43;;;;;;;9.07;5.85;;;35.10;38.80;;;;;;5033227;28;20075;-11
2022/08/27 10:56:45;;;;;;;9.57;5.50;;;34.80;38.60;;;;;;5033168;28;20477;-11
2022/08/27 10:59:22;;;;;;;8.60;5.47;;;34.40;39.30;;;;;;5030899;28;20026;-11
2022/08/27 11:01:58;;;;;;;8.82;5.68;;;34.40;38.50;;;;;;5032773;28;20052;-11
2022/08/27 11:04:30;;;;;;;8.45;5.32;;;34.00;38.80;;;;;;5033462;28;20030;-10
2022/08/27 11:07:08;;;;;;;9.95;5.38;;;33.40;39.10;;;;;;5032740;28;20110;-11
2022/08/27 11:09:39;;;;;;;8.93;5.28;;;32.90;39.60;;;;;;5033315;28;20022;-11
2022/08/27 11:12:09;;;;;;;8.75;5.45;;;32.40;40.50;;;;;;5032967;28;20095;-10
2022/08/27 11:15:01;;;;;;;9.82;5.45;;;31.90;41.50;;;;;;5033325;28;20084;-10
2022/08/27 11:17:43;;;;;;;9.60;5.70;;;31.50;41.90;;;;;;5032995;28;20112;-10
2022/08/27 11:20:23;;;;;;;8.65;5.38;;;31.20;42.60;;;;;;5032990;28;20021;-10
2022/08/27 11:22:55;;;;;;;11.63;5.30;;;30.90;43.00;;;;;;5032993;28;20025;-10
2022/08/27 11:25:21;;;;;;;9.20;5.20;;;30.70;44.20;;;;;;5033303;28;20075;-10
2022/08/27 11:27:52;;;;;;;9.48;5.20;;;30.30;45.40;;;;;;5033154;28;20037;-10
2022/08/27 11:30:27;;;;;;;12.38;5.30;;;30.00;46.60;;;;;;5033682;28;20036;-11
2022/08/27 11:32:59;;;;;;;11.40;5.60;;;29.50;47.30;;;;;;5032929;28;20478;-10
2022/08/27 11:35:34;;;;;;;15.30;5.53;;;29.00;48.10;;;;;;5032963;28;20471;-10
2022/08/27 11:38:34;;;;;;;8.77;5.22;;;28.70;48.90;;;;;;5032810;28;20034;-10
2022/08/27 11:41:22;;;;;;;8.32;5.10;;;28.50;48.70;;;;;;5031932;28;20037;-10
2022/08/27 11:43:48;;;;;;;8.77;5.53;;;28.40;49.10;;;;;;5032706;28;20057;-10
2022/08/27 11:46:26;;;;;;;8.75;5.05;;;28.40;49.00;;;;;;5033839;28;20041;-10
2022/08/27 11:49:02;;;;;;;8.77;5.22;;;28.70;47.60;;;;;;5032569;28;20026;-10
2022/08/27 11:51:33;;;;;;;6.57;4.75;;;28.90;47.20;;;;;;5032927;28;20099;-10
2022/08/27 11:54:06;;;;;;;8.00;4.95;;;29.00;46.80;;;;;;5033076;28;20025;-11
2022/08/27 11:56:34;;;;;;;8.55;5.18;;;29.10;46.90;;;;;;5032767;28;20474;-10
2022/08/27 11:59:20;;;;;;;7.15;4.55;;;29.30;46.60;;;;;;5032747;28;20033;-10
2022/08/27 12:01:47;;;;;;;7.50;4.95;;;29.70;45.40;;;;;;5032587;28;20473;-10
2022/08/27 12:04:35;;;;;;;6.78;4.47;;;29.80;45.10;;;;;;5032884;28;20105;-11
2022/08/27 12:07:05;;;;;;;8.30;4.68;;;29.80;45.60;;;;;;5032362;28;20032;-10
2022/08/27 12:09:56;;;;;;;8.68;4.60;;;30.10;45.30;;;;;;5032708;28;20025;-10
2022/08/27 12:12:51;;;;;;;7.50;4.80;;;30.30;44.50;;;;;;5032797;28;20080;-10
2022/08/27 12:15:26;;;;;;;7.72;4.60;;;30.20;45.50;;;;;;5032783;28;20025;-11
2022/08/27 12:18:10;;;;;;;8.82;4.95;;;30.20;45.30;;;;;;5033345;28;20029;-10
2022/08/27 12:20:54;;;;;;;6.65;5.05;;;30.00;45.30;;;;;;5036257;28;20029;-10
2022/08/27 12:23:38;;;;;;;7.32;4.68;;;29.90;46.10;;;;;;5036490;28;20469;-11
2022/08/27 12:26:33;;;;;;;6.50;4.72;;;29.70;46.20;;;;;;5036232;28;20049;-10
2022/08/27 12:29:17;;;;;;;9.13;5.03;;;29.40;47.50;;;;;;5035406;28;20054;-10
2022/08/27 12:31:47;;;;;;;7.75;4.25;;;29.40;47.40;;;;;;5035839;28;20397;-11
2022/08/27 12:34:25;;;;;;;11.90;4.15;;;29.30;47.30;;;;;;5036048;28;20461;-11
2022/08/27 12:36:53;;;;;;;9.85;4.22;;;28.90;47.90;;;;;;5035666;28;20034;-11
2022/08/27 12:39:28;;;;;;;8.93;3.97;;;28.70;47.40;;;;;;5035611;28;20109;-11
2022/08/27 12:41:54;;;;;;;12.38;4.20;;;28.30;48.40;;;;;;5035683;28;20033;-10
2022/08/27 12:44:24;;;;;;;5.60;4.00;;;28.10;48.70;;;;;;5036348;28;20025;-10
2022/08/27 12:47:12;;;;;;;5.13;3.70;;;27.90;49.10;;;;;;5035899;28;20017;-10
2022/08/27 12:49:57;;;;;;;6.68;3.65;;;27.90;49.20;;;;;;5035543;28;20049;-10
2022/08/27 12:52:45;;;;;;;7.60;3.53;;;28.00;49.20;;;;;;5035916;28;20036;-11
2022/08/27 12:55:29;;;;;;;4.80;2.90;;;28.50;47.20;;;;;;5035301;28;20025;-10
2022/08/27 12:58:04;;;;;;;5.70;3.17;;;29.00;43.90;;;;;;5035292;28;20076;-10
2022/08/27 13:00:55;;;;;;;6.00;3.08;;;29.30;43.40;;;;;;5035640;28;20030;-10
2022/08/27 13:03:28;;;;;;;7.35;3.50;;;29.30;43.80;;;;;;5035546;28;20393;-11
2022/08/27 13:05:56;;;;;;;4.57;3.05;;;29.10;44.50;;;;;;5035749;28;20374;-11
2022/08/27 13:08:34;;;;;;;7.00;3.40;;;29.00;45.10;;;;;;5035427;28;20072;-10
2022/08/27 13:11:20;;;;;;;8.00;3.63;;;29.20;44.80;;;;;;5034768;28;20075;-9
2022/08/27 13:13:47;;;;;;;8.40;3.60;;;29.40;44.50;;;;;;5035396;28;20069;-10